Time;durP1;ratioP1;P1;durP2;ratioP2;P2;SDS_P1;SDS_P2;PMS_P1;PMS_P2;Temp;Humidity;BMP_temperature;BMP_pressure;BME280_temperature;BME280_humidity;BME280_pressure;Samples;Min_cycle;Max_cycle;Signal;HPM_P1;HPM_P2
2021/04/12 00:00:41;;;;;;;3.03;0.95;;;20.20;51.30;;;;;;5071929;28;20043;-63
2021/04/12 00:03:08;;;;;;;2.00;0.90;;;20.20;50.70;;;;;;5092613;28;20040;-54
2021/04/12 00:06:07;;;;;;;5.05;1.00;;;20.30;49.70;;;;;;5092280;28;20024;-53
2021/04/12 00:08:56;;;;;;;2.42;1.00;;;20.30;49.60;;;;;;5063987;28;20128;-59
2021/04/12 00:11:42;;;;;;;3.05;1.08;;;20.40;49.90;;;;;;5091951;28;20028;-55
2021/04/12 00:14:18;;;;;;;4.55;1.42;;;20.40;49.90;;;;;;5092552;28;20028;-59
2021/04/12 00:16:54;;;;;;;3.63;1.30;;;20.50;49.40;;;;;;5092258;28;20028;-61
2021/04/12 00:19:45;;;;;;;2.63;0.95;;;20.60;49.90;;;;;;5091403;28;20054;-59
2021/04/12 00:22:15;;;;;;;3.30;1.23;;;20.60;48.50;;;;;;5092180;28;20028;-58
2021/04/12 00:25:03;;;;;;;2.95;1.15;;;20.70;49.70;;;;;;5091725;28;20127;-61
2021/04/12 00:27:36;;;;;;;2.28;0.93;;;20.80;48.10;;;;;;5091994;28;20161;-66
2021/04/12 00:30:27;;;;;;;2.33;0.93;;;20.80;48.20;;;;;;5092238;28;20044;-63
2021/04/12 00:33:00;;;;;;;4.18;1.00;;;20.90;48.70;;;;;;5091896;28;20074;-60
2021/04/12 00:35:33;;;;;;;5.63;1.83;;;21.00;49.00;;;;;;5091561;28;20024;-66
2021/04/12 00:38:30;;;;;;;3.55;1.30;;;21.00;48.60;;;;;;5091993;28;20047;-58
2021/04/12 00:41:02;;;;;;;4.18;1.60;;;21.10;47.60;;;;;;5091896;28;20028;-65
2021/04/12 00:43:59;;;;;;;7.03;1.20;;;21.20;48.40;;;;;;5091375;28;20101;-61
2021/04/12 00:46:29;;;;;;;3.30;1.02;;;21.20;48.10;;;;;;5091656;28;20118;-57
2021/04/12 00:49:15;;;;;;;2.97;1.10;;;21.20;47.90;;;;;;5091410;28;20044;-59
2021/04/12 00:51:48;;;;;;;3.35;1.20;;;21.30;47.90;;;;;;5091459;28;20027;-59
2021/04/12 00:54:39;;;;;;;3.35;1.23;;;21.30;48.40;;;;;;5091535;28;20036;-55
2021/04/12 00:57:29;;;;;;;4.28;1.20;;;21.40;47.80;;;;;;5091873;28;20069;-59
2021/04/12 01:00:15;;;;;;;4.70;1.00;;;21.40;49.00;;;;;;5080985;28;20036;-56
2021/04/12 01:03:03;;;;;;;1.65;0.90;;;21.40;48.80;;;;;;5091499;28;20036;-59
2021/04/12 01:05:45;;;;;;;3.72;1.38;;;21.50;47.40;;;;;;5091113;28;20032;-54
2021/04/12 01:08:30;;;;;;;;;;;21.60;48.70;;;;;;5091355;28;20067;-55
2021/04/12 01:11:27;;;;;;;2.70;1.20;;;21.70;46.80;;;;;;5091122;28;19904;-56
2021/04/12 01:14:21;;;;;;;1.77;0.95;;;21.70;47.40;;;;;;5090957;28;20055;-54
2021/04/12 01:17:02;;;;;;;2.53;0.93;;;21.80;46.60;;;;;;5090864;28;20478;-55
2021/04/12 01:19:59;;;;;;;6.10;1.45;;;21.80;47.80;;;;;;5088964;28;20066;-55
2021/04/12 01:22:59;;;;;;;4.50;1.30;;;21.90;48.90;;;;;;5090942;28;20063;-62
2021/04/12 01:26:03;;;;;;;1.83;0.80;;;22.00;46.20;;;;;;5090808;28;20486;-57
2021/04/12 01:29:20;;;;;;;10.80;1.70;;;22.00;48.70;;;;;;5091024;28;20031;-60
2021/04/12 01:32:24;;;;;;;5.38;1.30;;;22.10;47.30;;;;;;5090381;28;20455;-65
2021/04/12 01:35:23;;;;;;;3.30;1.20;;;22.20;47.50;;;;;;5090903;28;20028;-64
2021/04/12 01:38:20;;;;;;;4.30;1.40;;;22.10;47.40;;;;;;5066472;28;20489;-62
2021/04/12 01:41:21;;;;;;;3.38;1.10;;;22.10;47.00;;;;;;5091333;28;20386;-68
2021/04/12 01:44:29;;;;;;;0.82;0.60;;;22.20;47.30;;;;;;5091059;28;20032;-64
2021/04/12 01:47:20;;;;;;;3.22;1.20;;;22.20;47.30;;;;;;5089269;28;20562;-65
2021/04/12 01:50:08;;;;;;;3.20;0.98;;;22.20;47.20;;;;;;5090860;28;20043;-63
2021/04/12 01:52:43;;;;;;;4.45;1.10;;;22.20;48.60;;;;;;5091108;28;20020;-66
2021/04/12 01:55:41;;;;;;;3.80;1.08;;;22.20;47.20;;;;;;5091066;28;20028;-55
2021/04/12 01:58:27;;;;;;;3.22;1.10;;;22.30;47.40;;;;;;5090369;28;20024;-58
2021/04/12 02:01:30;;;;;;;1.90;0.77;;;22.30;46.70;;;;;;5090817;28;20666;-61
2021/04/12 02:04:20;;;;;;;3.10;0.90;;;22.40;46.80;;;;;;5090052;28;20121;-56
2021/04/12 02:07:27;;;;;;;3.33;0.80;;;22.30;47.30;;;;;;5089884;28;20040;-65
2021/04/12 02:09:57;;;;;;;3.85;1.52;;;22.40;47.60;;;;;;5058927;28;20135;-60
2021/04/12 02:12:43;;;;;;;3.05;1.00;;;22.50;48.00;;;;;;5089621;28;20055;-56
2021/04/12 02:15:26;;;;;;;2.55;0.80;;;22.50;46.90;;;;;;5089743;28;20038;-62
2021/04/12 02:18:09;;;;;;;1.75;1.05;;;22.50;47.80;;;;;;5089228;28;20032;-58
2021/04/12 02:20:49;;;;;;;1.95;0.90;;;22.40;48.20;;;;;;5089936;28;20023;-63
2021/04/12 02:23:38;;;;;;;3.15;1.02;;;22.50;48.40;;;;;;5089943;28;20036;-59
2021/04/12 02:26:41;;;;;;;2.05;1.00;;;22.50;48.80;;;;;;5089809;28;20095;-67
2021/04/12 02:29:20;;;;;;;1.65;0.80;;;22.50;48.30;;;;;;5089692;28;20067;-57
2021/04/12 02:31:47;;;;;;;2.90;1.27;;;22.50;47.20;;;;;;5089746;28;20024;-52
2021/04/12 02:34:51;;;;;;;1.42;0.65;;;22.60;48.00;;;;;;5087675;28;20171;-61
2021/04/12 02:37:49;;;;;;;1.42;0.90;;;22.50;48.10;;;;;;5089550;28;20081;-55
2021/04/12 02:40:34;;;;;;;3.20;1.15;;;22.60;48.30;;;;;;5049157;28;20025;-61
2021/04/12 02:43:46;;;;;;;2.55;1.05;;;22.60;47.70;;;;;;5048762;28;20033;-62
2021/04/12 02:46:53;;;;;;;2.92;0.98;;;22.60;46.60;;;;;;5038348;28;20143;-64
2021/04/12 02:49:33;;;;;;;3.63;1.40;;;22.60;48.20;;;;;;5046829;28;20510;-64
2021/04/12 02:52:27;;;;;;;3.03;1.10;;;22.60;47.60;;;;;;5048854;28;20029;-63
2021/04/12 02:55:18;;;;;;;2.63;1.05;;;22.60;49.00;;;;;;5046569;28;20025;-61
2021/04/12 02:57:55;;;;;;;3.22;1.00;;;22.70;47.90;;;;;;5048426;28;20024;-56
2021/04/12 03:00:40;;;;;;;11.10;1.50;;;22.70;47.40;;;;;;5047778;28;20025;-62
2021/04/12 03:03:32;;;;;;;4.20;1.35;;;22.70;47.10;;;;;;5068347;28;20039;-52
2021/04/12 03:06:36;;;;;;;1.80;0.95;;;22.80;48.00;;;;;;5067057;28;20127;-58
2021/04/12 03:09:43;;;;;;;1.83;0.80;;;22.80;48.70;;;;;;5068327;28;20052;-64
2021/04/12 03:12:40;;;;;;;3.80;1.10;;;22.70;48.70;;;;;;5068940;28;20032;-56
2021/04/12 03:15:32;;;;;;;3.58;0.95;;;22.70;47.60;;;;;;5036331;28;20513;-56
2021/04/12 03:18:11;;;;;;;5.05;1.23;;;22.70;48.50;;;;;;5068789;28;20021;-60
2021/04/12 03:21:14;;;;;;;3.28;1.30;;;22.70;48.30;;;;;;5068678;28;20048;-56
2021/04/12 03:24:22;;;;;;;1.52;0.85;;;22.80;47.60;;;;;;5068373;28;20059;-58
2021/04/12 03:27:24;;;;;;;3.55;1.02;;;22.80;48.90;;;;;;5005974;28;20041;-62
2021/04/12 03:30:06;;;;;;;5.50;1.37;;;22.90;47.80;;;;;;5006853;28;20129;-59
2021/04/12 03:32:51;;;;;;;;;;;23.00;48.10;;;;;;5061422;28;20442;-51
2021/04/12 03:35:37;;;;;;;2.70;1.13;;;23.00;48.90;;;;;;5072241;28;20351;-61
2021/04/12 03:38:24;;;;;;;3.08;1.10;;;22.90;48.60;;;;;;5071098;28;20135;-60
2021/04/12 03:41:08;;;;;;;2.78;0.98;;;22.90;49.20;;;;;;5072271;28;20033;-58
2021/04/12 03:44:11;;;;;;;2.28;0.98;;;23.00;48.40;;;;;;5072483;28;20531;-61
2021/04/12 03:46:53;;;;;;;3.05;1.70;;;22.90;48.80;;;;;;5072204;28;20113;-59
2021/04/12 03:49:38;;;;;;;;;;;23.10;48.90;;;;;;5072914;28;20037;-60
2021/04/12 03:52:17;;;;;;;2.22;0.95;;;23.20;48.90;;;;;;5072232;28;19927;-63
2021/04/12 03:55:14;;;;;;;1.38;0.90;;;23.30;46.00;;;;;;5072164;28;20021;-62
2021/04/12 03:58:18;;;;;;;1.52;0.80;;;23.30;48.10;;;;;;5072184;28;20033;-60
2021/04/12 04:01:12;;;;;;;3.35;0.98;;;23.20;49.40;;;;;;5071593;28;20138;-61
2021/04/12 04:04:09;;;;;;;2.65;1.20;;;23.20;49.30;;;;;;5071810;28;20028;-60
2021/04/12 04:07:08;;;;;;;1.85;1.02;;;23.20;49.10;;;;;;5064095;28;20036;-60
2021/04/12 04:10:10;;;;;;;4.60;1.30;;;23.30;46.80;;;;;;5071458;28;20052;-65
2021/04/12 04:12:58;;;;;;;6.07;1.50;;;23.30;48.30;;;;;;5071994;28;20028;-67
2021/04/12 04:15:28;;;;;;;2.08;1.20;;;23.40;46.60;;;;;;5071574;28;20029;-60
2021/04/12 04:18:39;;;;;;;2.78;1.30;;;23.40;49.00;;;;;;5071900;28;20580;-63
2021/04/12 04:21:40;;;;;;;4.15;1.42;;;23.40;48.50;;;;;;5009229;28;20041;-62
2021/04/12 04:24:25;;;;;;;2.60;1.00;;;23.50;48.60;;;;;;5009194;28;20133;-64
2021/04/12 04:27:28;;;;;;;2.38;1.33;;;23.40;49.30;;;;;;5064022;28;20047;-62
2021/04/12 04:30:23;;;;;;;2.83;1.05;;;23.40;48.40;;;;;;5071544;28;20075;-60
2021/04/12 04:32:59;;;;;;;2.53;1.20;;;23.40;49.30;;;;;;5071542;28;20028;-62
2021/04/12 04:35:55;;;;;;;2.63;1.33;;;23.50;49.10;;;;;;5071153;28;20102;-62
2021/04/12 04:38:53;;;;;;;3.55;1.30;;;23.60;47.20;;;;;;5071415;28;20028;-60
2021/04/12 04:41:54;;;;;;;5.82;1.27;;;23.60;48.70;;;;;;5070978;28;20062;-59
2021/04/12 04:44:52;;;;;;;2.45;1.10;;;23.70;46.70;;;;;;5071437;28;20063;-62
2021/04/12 04:47:43;;;;;;;4.35;1.25;;;23.80;47.70;;;;;;5071288;28;20112;-63
2021/04/12 04:50:35;;;;;;;4.30;1.45;;;23.80;48.70;;;;;;5071300;28;20047;-56
2021/04/12 04:53:02;;;;;;;2.27;1.03;;;23.80;48.60;;;;;;5070863;28;20115;-61
2021/04/12 04:55:48;;;;;;;4.40;1.33;;;23.90;48.40;;;;;;5071069;28;20029;-62
2021/04/12 04:58:34;;;;;;;3.70;1.02;;;24.00;46.70;;;;;;5071148;28;20058;-59
2021/04/12 05:01:10;;;;;;;5.93;1.30;;;24.00;48.10;;;;;;5070743;28;20039;-66
2021/04/12 05:03:58;;;;;;;2.67;1.20;;;23.90;46.90;;;;;;5070966;28;20584;-61
2021/04/12 05:06:43;;;;;;;3.00;1.50;;;24.00;47.00;;;;;;5071122;28;20051;-63
2021/04/12 05:09:20;;;;;;;3.55;1.50;;;24.10;47.80;;;;;;5070957;28;20052;-64
2021/04/12 05:12:16;;;;;;;4.10;1.40;;;24.10;46.20;;;;;;5058748;28;20390;-58
2021/04/12 05:14:52;;;;;;;2.42;1.10;;;24.10;47.40;;;;;;5066067;28;20063;-60
2021/04/12 05:17:52;;;;;;;2.58;0.90;;;24.20;46.80;;;;;;5070119;28;20117;-64
2021/04/12 05:20:53;;;;;;;2.10;1.05;;;24.30;46.60;;;;;;5069121;28;20029;-65
2021/04/12 05:23:38;;;;;;;1.75;0.98;;;24.40;44.90;;;;;;5063967;28;20032;-60
2021/04/12 05:26:21;;;;;;;4.90;1.45;;;24.30;46.40;;;;;;5065844;28;20029;-64
2021/04/12 05:29:15;;;;;;;3.95;1.23;;;24.30;44.90;;;;;;5071602;28;20123;-58
2021/04/12 05:31:52;;;;;;;5.75;1.52;;;24.30;46.00;;;;;;5064577;28;20020;-59
2021/04/12 05:34:53;;;;;;;3.28;1.17;;;24.30;45.00;;;;;;5063033;28;20036;-61
2021/04/12 05:37:50;;;;;;;4.00;1.30;;;24.30;48.10;;;;;;5067635;28;20028;-57
2021/04/12 05:40:49;;;;;;;3.28;1.02;;;24.30;47.80;;;;;;5069021;28;20040;-55
2021/04/12 05:43:40;;;;;;;3.42;1.10;;;24.30;47.70;;;;;;5062590;28;20123;-60
2021/04/12 05:46:33;;;;;;;2.85;1.17;;;24.30;47.30;;;;;;5065119;28;20108;-54
2021/04/12 05:49:16;;;;;;;6.25;1.50;;;24.30;44.90;;;;;;5068969;28;20055;-57
2021/04/12 05:52:13;;;;;;;3.60;1.48;;;24.30;47.40;;;;;;5067984;28;20039;-57
2021/04/12 05:55:08;;;;;;;2.20;1.00;;;24.40;46.00;;;;;;5065335;28;20068;-58
2021/04/12 05:57:48;;;;;;;2.58;1.27;;;24.30;47.80;;;;;;5068209;28;20814;-63
2021/04/12 06:00:35;;;;;;;3.10;1.05;;;24.30;46.30;;;;;;5066187;28;20021;-57
2021/04/12 06:03:06;;;;;;;2.78;1.20;;;24.30;47.50;;;;;;5064866;28;20028;-56
2021/04/12 06:06:09;;;;;;;2.05;1.15;;;24.30;47.50;;;;;;5069019;28;20028;-64
2021/04/12 06:09:21;;;;;;;2.75;1.40;;;24.30;48.10;;;;;;5063942;28;20058;-62
2021/04/12 06:11:54;;;;;;;4.00;1.27;;;24.20;45.60;;;;;;5040293;28;20063;-65
2021/04/12 06:14:42;;;;;;;2.58;0.95;;;24.20;48.10;;;;;;5063804;28;20029;-56
2021/04/12 06:17:22;;;;;;;2.50;1.10;;;24.20;46.40;;;;;;5064270;28;20036;-50
2021/04/12 06:20:07;;;;;;;2.15;1.10;;;24.20;47.00;;;;;;5067130;28;20031;-62
2021/04/12 06:23:08;;;;;;;2.67;0.95;;;24.20;45.70;;;;;;5063072;28;20699;-60
2021/04/12 06:25:53;;;;;;;2.47;1.08;;;24.20;47.60;;;;;;5067104;28;20028;-56
2021/04/12 06:28:39;;;;;;;2.67;1.02;;;24.10;47.40;;;;;;5065283;28;20679;-60
2021/04/12 06:31:30;;;;;;;2.85;0.95;;;24.10;47.90;;;;;;5066981;28;20094;-58
2021/04/12 06:34:07;;;;;;;2.78;1.20;;;24.10;48.30;;;;;;5061259;28;20035;-63
2021/04/12 06:37:11;;;;;;;2.33;0.93;;;24.00;48.20;;;;;;5067968;28;20696;-62
2021/04/12 06:39:51;;;;;;;2.05;1.23;;;24.00;48.60;;;;;;5064342;28;20039;-56
2021/04/12 06:42:57;;;;;;;2.63;1.58;;;23.90;48.70;;;;;;5063160;28;20795;-53
2021/04/12 06:45:45;;;;;;;4.28;2.00;;;23.90;48.60;;;;;;5064483;28;20027;-56
2021/04/12 06:48:21;;;;;;;3.88;1.70;;;23.90;47.50;;;;;;5067863;28;20136;-60
2021/04/12 06:50:51;;;;;;;6.68;2.78;;;23.80;47.00;;;;;;5067621;28;20402;-57
2021/04/12 06:53:50;;;;;;;4.15;2.50;;;23.80;48.40;;;;;;5060326;28;20024;-55
2021/04/12 06:56:23;;;;;;;4.85;2.80;;;23.70;47.40;;;;;;5067739;28;20094;-60
2021/04/12 06:59:02;;;;;;;5.95;2.40;;;23.70;47.80;;;;;;5063277;28;20499;-60
2021/04/12 07:01:54;;;;;;;5.32;3.20;;;23.60;49.20;;;;;;5064757;28;20066;-59
2021/04/12 07:04:30;;;;;;;6.55;3.72;;;23.60;49.30;;;;;;5060193;28;20045;-54
2021/04/12 07:07:35;;;;;;;6.18;3.72;;;23.60;49.40;;;;;;5070873;28;20155;-56
2021/04/12 07:10:20;;;;;;;6.35;4.00;;;23.50;48.50;;;;;;5064450;28;20064;-51
2021/04/12 07:13:06;;;;;;;5.13;3.80;;;23.50;47.50;;;;;;5062176;28;20036;-56
2021/04/12 07:16:10;;;;;;;7.13;3.97;;;23.40;46.30;;;;;;5062735;28;20028;-56
2021/04/12 07:19:11;;;;;;;6.25;3.70;;;23.30;47.30;;;;;;5068096;28;20076;-59
2021/04/12 07:21:56;;;;;;;4.47;4.00;;;23.20;47.70;;;;;;5064110;28;20031;-52
2021/04/12 07:24:50;;;;;;;4.97;4.30;;;23.10;48.50;;;;;;5063204;28;20032;-61
2021/04/12 07:27:58;;;;;;;6.20;5.10;;;23.00;48.40;;;;;;5065679;28;20028;-56
2021/04/12 07:30:42;;;;;;;6.43;5.32;;;22.90;48.80;;;;;;5067439;28;20123;-55
2021/04/12 07:33:53;;;;;;;7.82;4.78;;;22.80;50.00;;;;;;5062095;28;20029;-60
2021/04/12 07:37:00;;;;;;;9.15;5.38;;;22.70;49.90;;;;;;5065983;28;20055;-60
2021/04/12 07:39:53;;;;;;;7.50;5.63;;;22.60;50.70;;;;;;5067133;28;20475;-62
2021/04/12 07:42:36;;;;;;;6.07;5.30;;;22.50;50.60;;;;;;5029655;28;20266;-54
2021/04/12 07:45:58;;;;;;;9.80;6.32;;;22.40;50.70;;;;;;5063373;28;20165;-60
2021/04/12 07:49:10;;;;;;;7.53;5.68;;;22.30;50.60;;;;;;5066680;28;20028;-53
2021/04/12 07:52:14;;;;;;;8.45;5.93;;;22.20;51.20;;;;;;5066683;28;20032;-59
2021/04/12 07:55:09;;;;;;;6.82;5.00;;;22.10;51.80;;;;;;5064136;28;20029;-57
2021/04/12 07:58:13;;;;;;;7.00;6.28;;;22.10;51.70;;;;;;5063852;28;20024;-61
2021/04/12 08:00:40;;;;;;;10.82;6.05;;;22.00;52.00;;;;;;5063485;28;20102;-53
2021/04/12 08:03:50;;;;;;;8.77;5.70;;;21.90;52.10;;;;;;5062073;28;20506;-56
2021/04/12 08:06:58;;;;;;;9.43;5.90;;;21.90;53.00;;;;;;5063511;28;20101;-58
2021/04/12 08:09:56;;;;;;;6.78;5.40;;;21.80;52.90;;;;;;5066802;28;20510;-53
2021/04/12 08:12:44;;;;;;;10.13;5.45;;;21.80;53.00;;;;;;5060792;28;20054;-65
2021/04/12 08:15:48;;;;;;;13.68;5.63;;;21.80;52.90;;;;;;5061499;28;20790;-68
2021/04/12 08:18:33;;;;;;;12.25;4.93;;;21.70;52.40;;;;;;5067044;28;20024;-65
2021/04/12 08:21:57;;;;;;;13.75;5.07;;;21.60;51.80;;;;;;5071156;28;20480;-66
2021/04/12 08:25:04;;;;;;;12.68;4.80;;;21.60;52.10;;;;;;5004352;28;20053;-64
2021/04/12 08:27:49;;;;;;;12.20;4.80;;;21.60;51.10;;;;;;5005569;28;20091;-64
2021/04/12 08:30:49;;;;;;;29.50;5.38;;;21.50;50.80;;;;;;5058991;28;20074;-67
2021/04/12 08:33:52;;;;;;;11.80;5.60;;;21.50;51.00;;;;;;5065257;28;20028;-63
2021/04/12 08:36:38;;;;;;;15.63;9.75;;;21.50;50.80;;;;;;5071003;28;20078;-66
2021/04/12 08:39:27;;;;;;;16.42;9.23;;;21.50;51.10;;;;;;5066913;28;20062;-64
2021/04/12 08:42:27;;;;;;;20.77;14.93;;;21.50;52.00;;;;;;5071375;28;20032;-56
2021/04/12 08:45:13;;;;;;;35.83;17.13;;;21.50;52.30;;;;;;5069811;28;20032;-59
2021/04/12 08:48:04;;;;;;;17.52;9.50;;;21.50;53.10;;;;;;5070858;28;20572;-58
2021/04/12 08:50:58;;;;;;;20.07;12.03;;;21.50;52.90;;;;;;5069562;28;20112;-60
2021/04/12 08:53:44;;;;;;;21.00;10.65;;;21.50;54.20;;;;;;5070693;28;20040;-57
2021/04/12 08:56:47;;;;;;;16.17;11.80;;;21.50;54.40;;;;;;5070261;28;20070;-60
2021/04/12 08:59:49;;;;;;;17.60;12.60;;;21.40;55.40;;;;;;5070518;28;20486;-57
2021/04/12 09:02:40;;;;;;;16.50;13.15;;;21.40;54.50;;;;;;5070714;28;20060;-58
2021/04/12 09:05:35;;;;;;;19.48;11.73;;;21.40;57.10;;;;;;5070645;28;20036;-53
2021/04/12 09:08:22;;;;;;;21.90;12.48;;;21.40;55.80;;;;;;5070571;28;20080;-57
2021/04/12 09:11:16;;;;;;;18.17;12.18;;;21.40;57.10;;;;;;5070603;28;20036;-54
2021/04/12 09:14:14;;;;;;;16.77;10.10;;;21.40;58.00;;;;;;5070412;28;20024;-47
2021/04/12 09:17:15;;;;;;;17.77;9.35;;;21.30;57.60;;;;;;5070437;28;20037;-57
2021/04/12 09:19:57;;;;;;;14.93;7.65;;;21.30;59.00;;;;;;5069928;28;20098;-58
2021/04/12 09:22:48;;;;;;;13.07;8.70;;;21.30;55.40;;;;;;5070540;28;20055;-53
2021/04/12 09:25:23;;;;;;;24.95;6.97;;;21.30;56.40;;;;;;5070711;28;20024;-53
2021/04/12 09:28:12;;;;;;;39.20;7.63;;;21.30;56.90;;;;;;5070294;28;20035;-55
2021/04/12 09:30:46;;;;;;;48.50;25.60;;;21.20;58.10;;;;;;5060865;28;20064;-56
2021/04/12 09:33:43;;;;;;;37.78;27.05;;;21.20;59.10;;;;;;5065553;28;20024;-52
2021/04/12 09:36:10;;;;;;;25.58;13.57;;;21.20;57.10;;;;;;5065003;28;20475;-56
2021/04/12 09:39:14;;;;;;;45.90;41.00;;;21.20;59.50;;;;;;5069126;28;20077;-53
2021/04/12 09:42:05;;;;;;;34.42;30.75;;;21.20;56.30;;;;;;5090092;28;20031;-57
2021/04/12 09:45:07;;;;;;;22.63;13.25;;;21.10;55.90;;;;;;5090250;28;20123;-58
2021/04/12 09:47:52;;;;;;;34.28;25.95;;;21.10;55.60;;;;;;5089812;28;20419;-56
2021/04/12 09:50:23;;;;;;;32.85;18.38;;;21.10;54.50;;;;;;5089813;28;20082;-54
2021/04/12 09:53:10;;;;;;;32.63;12.85;;;21.00;55.50;;;;;;5089705;28;20133;-58
2021/04/12 09:56:03;;;;;;;37.13;25.25;;;20.90;55.40;;;;;;5089605;28;20024;-55
2021/04/12 09:59:05;;;;;;;32.15;22.75;;;20.90;54.80;;;;;;5060509;28;20063;-55
2021/04/12 10:01:50;;;;;;;39.47;26.55;;;20.90;57.70;;;;;;5089556;28;20415;-58
2021/04/12 10:04:59;;;;;;;57.00;51.85;;;20.90;58.10;;;;;;5089666;28;20146;-57
2021/04/12 10:08:04;;;;;;;28.45;25.35;;;20.90;56.70;;;;;;5081433;28;20111;-53
2021/04/12 10:10:37;;;;;;;24.08;17.75;;;20.90;56.40;;;;;;5089738;28;20056;-52
2021/04/12 10:13:54;;;;;;;30.90;25.20;;;20.90;56.60;;;;;;5090003;28;20463;-56
2021/04/12 10:16:26;;;;;;;17.50;13.35;;;20.90;55.40;;;;;;5026723;28;20041;-56
2021/04/12 10:19:02;;;;;;;26.65;16.23;;;20.80;57.20;;;;;;5026870;28;20053;-58
2021/04/12 10:21:55;;;;;;;33.83;24.75;;;20.80;56.40;;;;;;5062824;28;20032;-54
2021/04/12 10:24:28;;;;;;;25.85;15.77;;;20.80;56.60;;;;;;5089475;28;20085;-57
2021/04/12 10:27:25;;;;;;;17.92;11.35;;;20.80;56.30;;;;;;5089645;28;20032;-54
2021/04/12 10:30:19;;;;;;;17.88;9.30;;;20.80;56.60;;;;;;5087900;28;20115;-56
2021/04/12 10:33:02;;;;;;;17.10;7.65;;;20.80;57.50;;;;;;5088880;28;20055;-55
2021/04/12 10:35:53;;;;;;;17.38;7.70;;;20.80;55.80;;;;;;5089448;28;20038;-58
2021/04/12 10:38:40;;;;;;;25.63;7.00;;;20.70;58.80;;;;;;5081990;28;20020;-54
2021/04/12 10:41:23;;;;;;;21.08;6.45;;;20.70;56.40;;;;;;5068750;28;20028;-60
2021/04/12 10:44:14;;;;;;;15.75;6.13;;;20.70;56.00;;;;;;5069141;28;20108;-60
2021/04/12 10:47:05;;;;;;;19.08;6.38;;;20.60;55.60;;;;;;5067851;28;20089;-61
2021/04/12 10:50:02;;;;;;;19.20;6.22;;;20.60;57.50;;;;;;5061482;28;20394;-59
2021/04/12 10:52:37;;;;;;;16.42;6.18;;;20.60;56.90;;;;;;5065797;28;20031;-57
2021/04/12 10:55:20;;;;;;;18.75;6.47;;;20.50;57.10;;;;;;5065106;28;20117;-62
2021/04/12 10:58:06;;;;;;;17.92;6.45;;;20.60;57.50;;;;;;5066222;28;20387;-65
2021/04/12 11:00:42;;;;;;;15.63;6.32;;;20.50;57.50;;;;;;5063002;28;20028;-63
2021/04/12 11:03:59;;;;;;;21.42;6.57;;;20.50;57.60;;;;;;5067473;28;20040;-63
2021/04/12 11:06:48;;;;;;;24.27;6.93;;;20.50;57.80;;;;;;5047694;28;20032;-62
2021/04/12 11:09:35;;;;;;;17.13;7.00;;;20.50;57.90;;;;;;5063244;28;20124;-55
2021/04/12 11:12:31;;;;;;;21.95;7.05;;;20.50;57.90;;;;;;5022795;28;20041;-58
2021/04/12 11:15:08;;;;;;;16.92;6.75;;;20.40;58.00;;;;;;5064866;28;20108;-62
2021/04/12 11:17:51;;;;;;;17.98;6.97;;;20.40;57.90;;;;;;5067318;28;20017;-66
2021/04/12 11:20:28;;;;;;;18.63;7.03;;;20.40;58.00;;;;;;5063017;28;20029;-57
2021/04/12 11:23:00;;;;;;;18.30;6.43;;;20.40;58.10;;;;;;5065342;28;20055;-64
2021/04/12 11:25:42;;;;;;;22.38;7.15;;;20.40;58.10;;;;;;5066648;28;20028;-65
2021/04/12 11:28:58;;;;;;;18.45;6.78;;;20.40;58.20;;;;;;5067539;28;20044;-59
2021/04/12 11:32:03;;;;;;;18.08;7.05;;;20.30;58.40;;;;;;5062703;28;20024;-58
2021/04/12 11:35:06;;;;;;;18.73;6.72;;;20.30;58.20;;;;;;5033848;28;20047;-61
2021/04/12 11:37:58;;;;;;;27.80;6.70;;;20.30;58.30;;;;;;5046067;28;20044;-63
2021/04/12 11:40:34;;;;;;;15.27;6.70;;;20.20;58.40;;;;;;5062827;28;20024;-62
2021/04/12 11:43:16;;;;;;;20.60;7.03;;;20.20;58.50;;;;;;5067702;28;20441;-59
2021/04/12 11:45:48;;;;;;;14.57;6.38;;;20.20;58.60;;;;;;5066941;28;20029;-62
2021/04/12 11:48:26;;;;;;;21.50;7.25;;;20.20;58.60;;;;;;5066518;28;20055;-63
2021/04/12 11:51:02;;;;;;;12.25;6.32;;;20.20;58.60;;;;;;5066659;28;20028;-64
2021/04/12 11:53:49;;;;;;;15.13;6.20;;;20.20;58.80;;;;;;5071771;28;20112;-64
2021/04/12 11:56:31;;;;;;;18.58;7.63;;;20.20;58.70;;;;;;5071074;28;20020;-61
2021/04/12 11:59:04;;;;;;;13.93;6.32;;;20.20;58.70;;;;;;5064061;28;20036;-62
2021/04/12 12:01:47;;;;;;;21.45;6.65;;;20.20;58.70;;;;;;5070878;28;20084;-63
2021/04/12 12:04:34;;;;;;;16.40;5.97;;;20.10;58.70;;;;;;5071247;28;20028;-63
2021/04/12 12:07:13;;;;;;;18.35;6.80;;;20.10;58.70;;;;;;5070840;28;20037;-65
2021/04/12 12:09:41;;;;;;;16.67;7.07;;;20.10;58.70;;;;;;5066279;28;20053;-61
2021/04/12 12:12:11;;;;;;;15.05;6.80;;;20.10;59.10;;;;;;5070554;28;20029;-63
2021/04/12 12:15:00;;;;;;;16.63;7.32;;;20.10;59.10;;;;;;5070930;28;20058;-62
2021/04/12 12:17:36;;;;;;;17.05;6.35;;;20.10;59.00;;;;;;5067931;28;20029;-58
2021/04/12 12:20:16;;;;;;;13.27;6.10;;;20.00;58.90;;;;;;5067049;28;20029;-57
2021/04/12 12:22:54;;;;;;;19.77;6.85;;;20.00;59.10;;;;;;5070595;28;20020;-65
2021/04/12 12:25:35;;;;;;;17.73;6.68;;;20.00;59.20;;;;;;5070596;28;20070;-62
2021/04/12 12:28:37;;;;;;;14.88;6.68;;;20.00;59.10;;;;;;5068469;28;20039;-58
2021/04/12 12:31:10;;;;;;;18.48;6.43;;;20.00;59.10;;;;;;5070691;28;20051;-66
2021/04/12 12:33:40;;;;;;;10.50;5.45;;;19.90;59.00;;;;;;5070376;28;20087;-63
2021/04/12 12:36:12;;;;;;;13.95;6.50;;;19.90;59.00;;;;;;5069112;28;20038;-59
2021/04/12 12:38:46;;;;;;;18.33;6.77;;;19.90;59.00;;;;;;5066063;28;20033;-64
2021/04/12 12:41:25;;;;;;;12.98;6.30;;;19.90;59.10;;;;;;5069520;28;20800;-67
2021/04/12 12:44:02;;;;;;;13.15;5.55;;;19.90;59.10;;;;;;5066296;28;20029;-67
2021/04/12 12:46:34;;;;;;;13.52;5.65;;;19.90;59.20;;;;;;5069788;28;20020;-61
2021/04/12 12:49:25;;;;;;;14.45;6.28;;;19.90;59.10;;;;;;5065736;28;20418;-68
2021/04/12 12:52:02;;;;;;;11.57;6.03;;;19.90;59.10;;;;;;5070333;28;20071;-59
2021/04/12 12:54:38;;;;;;;13.80;5.38;;;19.80;59.10;;;;;;5069783;28;20028;-62
2021/04/12 12:57:28;;;;;;;11.48;5.65;;;19.80;59.10;;;;;;5069717;28;20020;-65
2021/04/12 13:00:08;;;;;;;14.45;5.88;;;19.80;59.20;;;;;;5065330;28;20029;-65
2021/04/12 13:02:40;;;;;;;15.75;6.05;;;19.80;59.10;;;;;;5069254;28;20032;-60
2021/04/12 13:05:22;;;;;;;12.23;5.93;;;19.80;59.20;;;;;;5069668;28;20029;-66
2021/04/12 13:07:50;;;;;;;13.35;6.00;;;19.80;59.20;;;;;;5070140;28;20448;-67
2021/04/12 13:10:33;;;;;;;12.73;5.38;;;19.70;59.20;;;;;;5065509;28;20056;-68
2021/04/12 13:13:01;;;;;;;11.25;5.55;;;19.80;59.10;;;;;;5069257;28;20077;-67
2021/04/12 13:15:35;;;;;;;15.02;5.95;;;19.80;59.20;;;;;;5069015;28;20031;-64
2021/04/12 13:18:23;;;;;;;12.65;5.93;;;19.80;59.10;;;;;;5069955;28;20028;-68
2021/04/12 13:21:18;;;;;;;14.35;6.20;;;19.80;59.20;;;;;;5067876;28;20641;-64
2021/04/12 13:23:45;;;;;;;13.75;5.75;;;19.70;59.10;;;;;;5034833;28;20096;-63
2021/04/12 13:26:39;;;;;;;13.50;5.78;;;19.70;59.20;;;;;;5070916;28;20028;-67
2021/04/12 13:29:21;;;;;;;13.35;5.38;;;19.70;59.20;;;;;;5070557;28;20032;-68
2021/04/12 13:31:52;;;;;;;14.17;5.53;;;19.70;59.20;;;;;;5070382;28;20032;-66
2021/04/12 13:34:38;;;;;;;12.32;4.70;;;19.60;59.30;;;;;;5070546;28;20055;-66
2021/04/12 13:37:56;;;;;;;15.77;5.97;;;19.60;59.30;;;;;;5070928;28;20028;-69
2021/04/12 13:40:46;;;;;;;10.82;4.95;;;19.50;59.30;;;;;;4988438;28;20034;-68
2021/04/12 13:43:15;;;;;;;11.43;5.45;;;19.50;59.40;;;;;;5070078;28;20551;-62
2021/04/12 13:45:46;;;;;;;12.48;6.20;;;19.50;59.50;;;;;;5070340;28;20118;-65
2021/04/12 13:48:26;;;;;;;11.40;4.82;;;19.50;59.70;;;;;;5069718;28;20024;-68
2021/04/12 13:51:02;;;;;;;10.75;4.60;;;19.40;59.80;;;;;;5070198;28;20067;-65
2021/04/12 13:53:32;;;;;;;12.70;5.25;;;19.40;59.90;;;;;;5070062;28;20047;-65
2021/04/12 13:56:14;;;;;;;9.30;4.75;;;19.30;60.00;;;;;;5070245;28;20032;-67
2021/04/12 13:58:59;;;;;;;9.07;5.07;;;19.30;60.10;;;;;;5069943;28;20505;-70
2021/04/12 14:01:38;;;;;;;10.90;4.80;;;19.30;60.20;;;;;;5070120;28;20032;-65
2021/04/12 14:04:26;;;;;;;9.35;4.97;;;19.20;60.40;;;;;;5069212;28;20408;-68
2021/04/12 14:07:08;;;;;;;10.02;4.97;;;19.20;60.50;;;;;;5067344;28;20097;-70
2021/04/12 14:10:12;;;;;;;8.07;4.28;;;19.20;60.60;;;;;;5069906;28;20052;-69
2021/04/12 14:12:49;;;;;;;8.77;4.50;;;19.20;60.60;;;;;;5068987;28;20055;-66
2021/04/12 14:15:23;;;;;;;10.68;4.88;;;19.10;60.60;;;;;;5069239;28;20052;-69
2021/04/12 14:18:03;;;;;;;11.38;4.88;;;19.10;60.70;;;;;;5069598;28;20062;-67
2021/04/12 14:20:30;;;;;;;11.52;5.20;;;19.10;60.80;;;;;;5067954;28;20035;-69
2021/04/12 14:23:02;;;;;;;8.48;4.30;;;19.00;60.90;;;;;;5069263;28;20063;-65
2021/04/12 14:25:33;;;;;;;;;;;19.00;60.90;;;;;;5066214;28;20362;-62
2021/04/12 14:28:15;;;;;;;15.27;6.25;;;19.00;60.90;;;;;;5069118;28;19918;-66
2021/04/12 14:30:53;;;;;;;11.05;5.78;;;19.00;61.10;;;;;;5062654;28;20375;-66